createdAt,value
2023-05-22T00:04:23.389Z,9.82
2023-05-22T00:09:28.731Z,10.43
2023-05-22T00:14:30.474Z,9.02
2023-05-22T00:19:33.124Z,10.37
2023-05-22T00:24:35.875Z,10.60
2023-05-22T00:29:37.704Z,10.30
2023-05-22T00:34:39.534Z,10.07
2023-05-22T00:39:41.331Z,8.57
2023-05-22T00:44:43.280Z,10.93
2023-05-22T00:49:46.103Z,11.33
2023-05-22T00:54:50.381Z,10.30
2023-05-22T00:59:52.312Z,10.88
2023-05-22T01:04:58.074Z,9.85
2023-05-22T01:09:59.819Z,10.77
2023-05-22T01:15:21.916Z,10.77
2023-05-22T01:20:33.467Z,10.97
2023-05-22T01:25:35.218Z,11.32
2023-05-22T01:30:54.221Z,10.82
2023-05-22T01:35:58.305Z,10.70
2023-05-22T01:41:01.530Z,9.77
2023-05-22T01:46:03.982Z,10.95
2023-05-22T01:51:46.785Z,10.52
2023-05-22T01:56:56.975Z,10.35
2023-05-22T02:02:05.002Z,11.20
2023-05-22T02:07:12.321Z,11.60
2023-05-22T02:12:15.091Z,10.75
2023-05-22T02:17:21.942Z,10.20
2023-05-22T02:22:23.867Z,10.60
2023-05-22T02:27:25.685Z,12.03
2023-05-22T02:32:29.734Z,10.52
2023-05-22T02:37:31.726Z,11.57
2023-05-22T02:42:34.472Z,10.80
2023-05-22T02:52:39.464Z,10.20
2023-05-22T02:57:41.269Z,11.90
2023-05-22T03:02:43.106Z,11.40
2023-05-22T03:07:48.113Z,11.43
2023-05-22T03:12:54.068Z,11.15
2023-05-22T03:17:56.490Z,10.48
2023-05-22T03:22:58.485Z,12.60
2023-05-22T03:28:00.943Z,12.40
2023-05-22T03:33:06.005Z,12.65
2023-05-22T03:38:07.849Z,12.13
2023-05-22T03:43:09.875Z,10.27
2023-05-22T03:48:12.655Z,11.13
2023-05-22T03:53:14.664Z,11.32
2023-05-22T03:58:16.858Z,11.65
2023-05-22T04:03:19.851Z,10.00
2023-05-22T04:08:22.567Z,10.18
2023-05-22T04:13:24.325Z,12.13
2023-05-22T04:18:26.073Z,11.95
2023-05-22T04:23:27.878Z,14.00
2023-05-22T04:28:30.375Z,13.50
2023-05-22T04:33:34.312Z,13.27
2023-05-22T04:38:37.250Z,14.05
2023-05-22T04:48:42.011Z,13.60
2023-05-22T04:53:44.124Z,14.73
2023-05-22T04:58:48.736Z,13.80
2023-05-22T05:03:50.905Z,13.82
2023-05-22T05:08:53.414Z,13.87
2023-05-22T05:13:55.175Z,13.20
2023-05-22T05:18:58.355Z,12.75
2023-05-22T05:24:00.388Z,13.80
2023-05-22T05:29:02.613Z,14.05
2023-05-22T05:34:13.473Z,14.00
2023-05-22T05:39:32.882Z,12.85
2023-05-22T05:44:38.188Z,12.93
2023-05-22T05:49:41.960Z,12.48
2023-05-22T05:54:47.428Z,12.65
2023-05-22T05:59:53.607Z,13.18
2023-05-22T06:05:19.097Z,12.83
2023-05-22T06:10:23.849Z,12.70
2023-05-22T06:15:36.256Z,12.68
2023-05-22T06:20:39.473Z,12.52
2023-05-22T06:25:42.193Z,12.10
2023-05-22T06:30:44.066Z,12.87
2023-05-22T06:35:50.716Z,11.95
2023-05-22T06:40:52.964Z,12.55
2023-05-22T06:45:58.352Z,12.70
2023-05-22T06:51:24.550Z,12.52
2023-05-22T06:56:33.072Z,12.30
2023-05-22T07:01:41.502Z,11.98
2023-05-22T07:06:48.697Z,12.52
2023-05-22T07:11:50.904Z,12.73
2023-05-22T07:16:53.096Z,12.93
2023-05-22T07:22:01.956Z,12.57
2023-05-22T07:27:05.514Z,12.43
2023-05-22T07:32:08.629Z,12.43
2023-05-22T07:37:13.179Z,11.40
2023-05-22T07:42:17.376Z,11.73
2023-05-22T07:47:26.487Z,11.43
2023-05-22T07:52:29.021Z,11.73
2023-05-22T07:57:31.079Z,11.82
2023-05-22T08:02:39.101Z,12.65
2023-05-22T08:07:41.480Z,12.80
2023-05-22T08:12:43.557Z,12.90
2023-05-22T08:17:45.300Z,12.18
2023-05-22T08:22:47.414Z,12.20
2023-05-22T08:27:49.456Z,11.95
2023-05-22T08:32:51.254Z,12.40
2023-05-22T08:37:53.148Z,12.37
2023-05-22T08:42:57.440Z,11.87
2023-05-22T08:48:00.058Z,12.00
2023-05-22T08:53:03.245Z,12.27
2023-05-22T08:58:05.649Z,12.20
2023-05-22T09:03:10.255Z,12.55
2023-05-22T09:08:19.745Z,12.93
2023-05-22T09:13:27.260Z,12.90
2023-05-22T09:18:32.255Z,12.50
2023-05-22T09:23:34.721Z,11.45
2023-05-22T09:28:37.738Z,12.07
2023-05-22T09:33:39.507Z,11.65
2023-05-22T09:38:41.393Z,11.93
2023-05-22T09:43:50.853Z,11.93
2023-05-22T09:48:53.024Z,11.32
2023-05-22T09:54:03.367Z,12.50
2023-05-22T09:59:09.272Z,11.18
2023-05-22T10:04:14.317Z,11.60
2023-05-22T10:09:19.631Z,11.10
2023-05-22T10:14:22.402Z,11.35
2023-05-22T10:19:27.401Z,10.13
2023-05-22T10:24:29.993Z,10.55
2023-05-22T10:34:53.756Z,10.40
2023-05-22T10:40:08.988Z,9.63
2023-05-22T10:45:11.300Z,9.90
2023-05-22T10:50:13.345Z,9.55
2023-05-22T10:55:15.586Z,10.25
2023-05-22T11:00:19.265Z,10.27
2023-05-22T11:05:25.930Z,9.68
2023-05-22T11:10:47.827Z,10.38
2023-05-22T11:15:49.581Z,10.33
2023-05-22T11:20:53.722Z,9.90
2023-05-22T11:25:55.726Z,9.82
2023-05-22T11:30:57.831Z,9.40
2023-05-22T11:35:59.948Z,9.35
2023-05-22T11:41:01.736Z,8.80
2023-05-22T11:46:07.883Z,8.90
2023-05-22T11:51:10.527Z,9.73
2023-05-22T11:56:12.290Z,8.73
2023-05-22T12:06:17.827Z,8.77
2023-05-22T12:11:19.760Z,8.98
2023-05-22T12:16:22.732Z,9.25
2023-05-22T12:21:26.795Z,9.02
2023-05-22T12:26:28.568Z,8.30
2023-05-22T12:31:38.317Z,8.80
2023-05-22T12:36:41.671Z,8.88
2023-05-22T12:41:44.359Z,8.20
2023-05-22T12:46:46.286Z,7.55
2023-05-22T12:51:48.117Z,7.80
2023-05-22T12:56:49.864Z,7.13
2023-05-22T13:01:51.893Z,7.82
2023-05-22T13:06:53.851Z,7.90
2023-05-22T13:11:55.743Z,7.55
2023-05-22T13:16:57.833Z,7.68
2023-05-22T13:27:01.864Z,7.78
2023-05-22T13:32:04.316Z,6.63
2023-05-22T13:37:06.651Z,7.20
2023-05-22T13:42:08.492Z,6.88
2023-05-22T13:47:11.173Z,6.50
2023-05-22T13:52:13.439Z,6.75
2023-05-22T13:57:17.585Z,5.63
2023-05-22T14:02:20.801Z,6.40
2023-05-22T14:07:22.543Z,5.90
2023-05-22T14:12:24.380Z,6.00
2023-05-22T14:17:26.479Z,5.70
2023-05-22T14:22:30.629Z,6.00
2023-05-22T14:27:34.671Z,6.57
2023-05-22T14:32:36.457Z,5.90
2023-05-22T14:37:41.276Z,5.45
2023-05-22T14:42:43.102Z,5.03
2023-05-22T14:47:45.306Z,5.55
2023-05-22T14:52:48.412Z,5.00
2023-05-22T14:57:50.284Z,4.57
2023-05-22T15:02:52.253Z,4.75
2023-05-22T15:13:00.601Z,5.70
2023-05-22T15:18:04.714Z,5.97
2023-05-22T15:23:06.807Z,5.07
2023-05-22T15:28:08.600Z,5.50
2023-05-22T15:33:11.613Z,4.90
2023-05-22T15:38:15.413Z,5.30
2023-05-22T15:43:17.544Z,5.20
2023-05-22T15:53:21.970Z,4.77
2023-05-22T15:58:26.432Z,4.90
2023-05-22T16:03:28.276Z,4.80
2023-05-22T16:08:30.148Z,4.68
2023-05-22T16:13:33.313Z,4.47
2023-05-22T16:18:35.659Z,5.00
2023-05-22T16:23:37.372Z,5.32
2023-05-22T16:28:39.090Z,4.68
2023-05-22T16:33:41.792Z,5.07
2023-05-22T16:38:43.608Z,5.00
2023-05-22T16:43:45.469Z,5.30
2023-05-22T16:48:47.310Z,5.65
2023-05-22T16:53:50.802Z,5.32
2023-05-22T16:58:52.617Z,5.32
2023-05-22T17:03:54.752Z,5.47
2023-05-22T17:08:56.594Z,5.30
2023-05-22T17:13:58.311Z,5.90
2023-05-22T17:24:02.168Z,5.27
2023-05-22T17:29:03.920Z,5.43
2023-05-22T17:34:07.814Z,5.70
2023-05-22T17:39:09.734Z,5.68
2023-05-22T17:44:11.802Z,5.72
2023-05-22T17:49:13.480Z,6.00
2023-05-22T17:54:16.037Z,5.90
2023-05-22T17:59:18.226Z,5.80
2023-05-22T18:04:20.497Z,6.20
2023-05-22T18:09:22.197Z,6.45
2023-05-22T18:14:24.005Z,6.88
2023-05-22T18:19:26.117Z,6.50
2023-05-22T18:24:28.472Z,6.97
2023-05-22T18:29:30.627Z,6.90
2023-05-22T18:39:34.288Z,6.68
2023-05-22T18:44:36.264Z,8.00
2023-05-22T18:49:38.077Z,7.45
2023-05-22T18:54:39.908Z,7.60
2023-05-22T18:59:43.315Z,7.70
2023-05-22T19:04:45.624Z,7.60
2023-05-22T19:09:47.404Z,7.65
2023-05-22T19:14:49.636Z,7.93
2023-05-22T19:19:51.406Z,8.20
2023-05-22T19:24:53.145Z,8.10
2023-05-22T19:29:55.210Z,8.50
2023-05-22T19:34:57.660Z,8.30
2023-05-22T19:39:59.385Z,8.63
2023-05-22T19:45:02.586Z,8.23
2023-05-22T19:50:04.831Z,8.70
2023-05-22T19:55:07.006Z,8.40
2023-05-22T20:00:10.955Z,7.93
2023-05-22T20:05:13.478Z,9.27
2023-05-22T20:10:16.088Z,9.20
2023-05-22T20:15:17.790Z,8.85
2023-05-22T20:20:20.289Z,8.90
2023-05-22T20:25:21.990Z,9.10
2023-05-22T20:30:24.492Z,8.73
2023-05-22T20:35:26.473Z,9.15
2023-05-22T20:40:29.695Z,9.77
2023-05-22T20:45:32.904Z,9.10
2023-05-22T20:50:36.522Z,9.60
2023-05-22T20:55:39.590Z,9.55
2023-05-22T21:00:42.174Z,9.48
2023-05-22T21:05:44.030Z,9.57
2023-05-22T21:10:45.949Z,9.20
2023-05-22T21:15:47.637Z,9.33
2023-05-22T21:20:50.120Z,8.95
2023-05-22T21:25:52.033Z,9.87
2023-05-22T21:30:54.145Z,9.50
2023-05-22T21:35:56.097Z,9.88
2023-05-22T21:40:57.882Z,9.57
2023-05-22T21:46:00.236Z,10.23
2023-05-22T21:51:01.950Z,10.17
2023-05-22T21:56:03.684Z,9.83
2023-05-22T22:01:05.980Z,10.77
2023-05-22T22:06:08.434Z,11.02
2023-05-22T22:11:10.732Z,11.63
2023-05-22T22:16:12.493Z,11.18
2023-05-22T22:21:15.401Z,11.43
2023-05-22T22:26:17.879Z,11.30
2023-05-22T22:31:19.661Z,12.00
2023-05-22T22:36:22.803Z,13.30
2023-05-22T22:41:24.535Z,12.80
2023-05-22T22:46:26.566Z,12.05
2023-05-22T22:51:30.790Z,12.27
2023-05-22T22:56:32.730Z,11.95
2023-05-22T23:01:34.558Z,12.50
2023-05-22T23:06:36.289Z,12.63
2023-05-22T23:11:38.634Z,10.93
2023-05-22T23:21:45.219Z,10.88
2023-05-22T23:26:47.193Z,12.40
2023-05-22T23:31:50.508Z,12.00
2023-05-22T23:36:52.423Z,12.38
2023-05-22T23:41:55.212Z,12.50
2023-05-22T23:46:57.348Z,12.38
2023-05-22T23:51:59.369Z,11.98
2023-05-22T23:57:01.162Z,11.10
